sensor_id;sensor_type;location;lat;lon;timestamp;P1;durP1;ratioP1;P2;durP2;ratioP2
2031;SDS011;27625;50.422;7.944;2022-10-16T00:02:36;4.43;;;3.03;;
2031;SDS011;27625;50.422;7.944;2022-10-16T00:05:02;4.60;;;2.60;;
2031;SDS011;27625;50.422;7.944;2022-10-16T00:07:29;4.80;;;3.23;;
2031;SDS011;27625;50.422;7.944;2022-10-16T00:09:56;4.40;;;3.00;;
2031;SDS011;27625;50.422;7.944;2022-10-16T00:12:22;4.60;;;3.07;;
2031;SDS011;27625;50.422;7.944;2022-10-16T00:14:49;4.80;;;3.07;;
2031;SDS011;27625;50.422;7.944;2022-10-16T00:17:15;4.13;;;2.93;;
2031;SDS011;27625;50.422;7.944;2022-10-16T00:19:43;3.43;;;3.10;;
2031;SDS011;27625;50.422;7.944;2022-10-16T00:22:10;3.60;;;3.10;;
2031;SDS011;27625;50.422;7.944;2022-10-16T00:24:37;4.37;;;3.00;;
2031;SDS011;27625;50.422;7.944;2022-10-16T00:27:04;4.03;;;3.00;;
2031;SDS011;27625;50.422;7.944;2022-10-16T00:29:31;3.20;;;2.90;;
2031;SDS011;27625;50.422;7.944;2022-10-16T00:31:58;3.70;;;2.70;;
2031;SDS011;27625;50.422;7.944;2022-10-16T00:34:25;3.53;;;2.73;;
2031;SDS011;27625;50.422;7.944;2022-10-16T00:36:53;3.30;;;3.00;;
2031;SDS011;27625;50.422;7.944;2022-10-16T00:39:20;3.03;;;2.60;;
2031;SDS011;27625;50.422;7.944;2022-10-16T00:41:47;6.63;;;3.40;;
2031;SDS011;27625;50.422;7.944;2022-10-16T00:47:09;5.23;;;3.17;;
2031;SDS011;27625;50.422;7.944;2022-10-16T00:49:37;3.53;;;2.87;;
2031;SDS011;27625;50.422;7.944;2022-10-16T00:52:05;3.10;;;2.80;;
2031;SDS011;27625;50.422;7.944;2022-10-16T00:54:32;4.97;;;3.07;;
2031;SDS011;27625;50.422;7.944;2022-10-16T00:57:00;3.70;;;2.70;;
2031;SDS011;27625;50.422;7.944;2022-10-16T00:59:29;3.67;;;3.07;;
2031;SDS011;27625;50.422;7.944;2022-10-16T01:01:57;3.80;;;2.80;;
2031;SDS011;27625;50.422;7.944;2022-10-16T01:04:24;3.73;;;3.03;;
2031;SDS011;27625;50.422;7.944;2022-10-16T01:06:52;3.83;;;3.07;;
2031;SDS011;27625;50.422;7.944;2022-10-16T01:09:26;4.50;;;3.30;;
2031;SDS011;27625;50.422;7.944;2022-10-16T01:12:01;4.23;;;2.80;;
2031;SDS011;27625;50.422;7.944;2022-10-16T01:14:34;5.37;;;3.07;;
2031;SDS011;27625;50.422;7.944;2022-10-16T01:17:06;5.07;;;3.33;;
2031;SDS011;27625;50.422;7.944;2022-10-16T01:19:40;7.33;;;3.33;;
2031;SDS011;27625;50.422;7.944;2022-10-16T01:22:14;6.80;;;3.40;;
2031;SDS011;27625;50.422;7.944;2022-10-16T01:24:43;4.60;;;3.00;;
2031;SDS011;27625;50.422;7.944;2022-10-16T01:27:13;3.87;;;2.87;;
2031;SDS011;27625;50.422;7.944;2022-10-16T01:29:47;3.90;;;2.97;;
2031;SDS011;27625;50.422;7.944;2022-10-16T01:32:17;3.63;;;2.90;;
2031;SDS011;27625;50.422;7.944;2022-10-16T01:34:48;4.23;;;2.97;;
2031;SDS011;27625;50.422;7.944;2022-10-16T01:37:20;3.40;;;3.00;;
2031;SDS011;27625;50.422;7.944;2022-10-16T01:39:51;3.90;;;3.50;;
2031;SDS011;27625;50.422;7.944;2022-10-16T01:42:24;3.97;;;3.37;;
2031;SDS011;27625;50.422;7.944;2022-10-16T01:44:53;6.33;;;3.20;;
2031;SDS011;27625;50.422;7.944;2022-10-16T01:47:21;3.97;;;2.90;;
2031;SDS011;27625;50.422;7.944;2022-10-16T01:49:49;3.37;;;3.07;;
2031;SDS011;27625;50.422;7.944;2022-10-16T01:52:17;3.27;;;2.97;;
2031;SDS011;27625;50.422;7.944;2022-10-16T01:54:46;5.67;;;3.20;;
2031;SDS011;27625;50.422;7.944;2022-10-16T01:57:14;3.97;;;3.00;;
2031;SDS011;27625;50.422;7.944;2022-10-16T01:59:44;6.50;;;2.70;;
2031;SDS011;27625;50.422;7.944;2022-10-16T02:02:13;4.40;;;2.90;;
2031;SDS011;27625;50.422;7.944;2022-10-16T02:04:42;3.30;;;2.83;;
2031;SDS011;27625;50.422;7.944;2022-10-16T02:07:11;3.17;;;2.70;;
2031;SDS011;27625;50.422;7.944;2022-10-16T02:09:38;3.20;;;2.90;;
2031;SDS011;27625;50.422;7.944;2022-10-16T02:12:06;6.30;;;3.10;;
2031;SDS011;27625;50.422;7.944;2022-10-16T02:14:36;3.10;;;2.53;;
2031;SDS011;27625;50.422;7.944;2022-10-16T02:17:10;3.40;;;2.80;;
2031;SDS011;27625;50.422;7.944;2022-10-16T02:19:38;5.10;;;3.10;;
2031;SDS011;27625;50.422;7.944;2022-10-16T02:22:05;4.20;;;3.10;;
2031;SDS011;27625;50.422;7.944;2022-10-16T02:24:33;3.30;;;3.00;;
2031;SDS011;27625;50.422;7.944;2022-10-16T02:27:05;4.27;;;3.30;;
2031;SDS011;27625;50.422;7.944;2022-10-16T02:29:34;7.13;;;2.80;;
2031;SDS011;27625;50.422;7.944;2022-10-16T02:32:04;5.23;;;3.10;;
2031;SDS011;27625;50.422;7.944;2022-10-16T02:34:33;3.93;;;3.20;;
2031;SDS011;27625;50.422;7.944;2022-10-16T02:37:01;6.37;;;2.80;;
2031;SDS011;27625;50.422;7.944;2022-10-16T02:39:28;4.37;;;3.10;;
2031;SDS011;27625;50.422;7.944;2022-10-16T02:41:55;6.33;;;3.20;;
2031;SDS011;27625;50.422;7.944;2022-10-16T02:44:22;4.43;;;3.53;;
2031;SDS011;27625;50.422;7.944;2022-10-16T02:46:48;4.67;;;3.13;;
2031;SDS011;27625;50.422;7.944;2022-10-16T02:49:15;4.50;;;2.80;;
2031;SDS011;27625;50.422;7.944;2022-10-16T02:51:44;3.90;;;2.93;;
2031;SDS011;27625;50.422;7.944;2022-10-16T02:54:11;4.77;;;3.20;;
2031;SDS011;27625;50.422;7.944;2022-10-16T02:56:38;3.40;;;2.70;;
2031;SDS011;27625;50.422;7.944;2022-10-16T02:59:04;4.87;;;3.20;;
2031;SDS011;27625;50.422;7.944;2022-10-16T03:01:31;3.90;;;3.00;;
2031;SDS011;27625;50.422;7.944;2022-10-16T03:03:57;5.40;;;3.60;;
2031;SDS011;27625;50.422;7.944;2022-10-16T03:06:24;5.07;;;2.50;;
2031;SDS011;27625;50.422;7.944;2022-10-16T03:08:52;5.10;;;2.97;;
2031;SDS011;27625;50.422;7.944;2022-10-16T03:11:18;4.77;;;2.13;;
2031;SDS011;27625;50.422;7.944;2022-10-16T03:13:45;3.13;;;2.60;;
2031;SDS011;27625;50.422;7.944;2022-10-16T03:16:11;3.80;;;2.90;;
2031;SDS011;27625;50.422;7.944;2022-10-16T03:18:38;5.23;;;3.03;;
2031;SDS011;27625;50.422;7.944;2022-10-16T03:21:05;3.80;;;2.57;;
2031;SDS011;27625;50.422;7.944;2022-10-16T03:23:31;3.30;;;2.70;;
2031;SDS011;27625;50.422;7.944;2022-10-16T03:25:59;6.43;;;2.63;;
2031;SDS011;27625;50.422;7.944;2022-10-16T03:28:26;4.00;;;3.00;;
2031;SDS011;27625;50.422;7.944;2022-10-16T03:30:53;3.70;;;2.90;;
2031;SDS011;27625;50.422;7.944;2022-10-16T03:33:20;3.70;;;2.80;;
2031;SDS011;27625;50.422;7.944;2022-10-16T03:35:50;7.60;;;2.70;;
2031;SDS011;27625;50.422;7.944;2022-10-16T03:38:17;2.93;;;2.63;;
2031;SDS011;27625;50.422;7.944;2022-10-16T03:40:43;3.93;;;2.50;;
2031;SDS011;27625;50.422;7.944;2022-10-16T03:43:11;3.10;;;2.73;;
2031;SDS011;27625;50.422;7.944;2022-10-16T03:45:38;6.50;;;2.80;;
2031;SDS011;27625;50.422;7.944;2022-10-16T03:48:05;3.50;;;2.73;;
2031;SDS011;27625;50.422;7.944;2022-10-16T03:50:31;2.90;;;2.40;;
2031;SDS011;27625;50.422;7.944;2022-10-16T03:52:58;3.50;;;2.37;;
2031;SDS011;27625;50.422;7.944;2022-10-16T03:55:24;6.80;;;2.57;;
2031;SDS011;27625;50.422;7.944;2022-10-16T03:57:51;4.37;;;2.53;;
2031;SDS011;27625;50.422;7.944;2022-10-16T04:00:19;3.37;;;2.13;;
2031;SDS011;27625;50.422;7.944;2022-10-16T04:02:45;3.50;;;2.30;;
2031;SDS011;27625;50.422;7.944;2022-10-16T04:05:12;5.23;;;2.50;;
2031;SDS011;27625;50.422;7.944;2022-10-16T04:07:38;2.90;;;1.90;;
2031;SDS011;27625;50.422;7.944;2022-10-16T04:10:05;2.70;;;2.00;;
2031;SDS011;27625;50.422;7.944;2022-10-16T04:12:32;2.60;;;2.23;;
2031;SDS011;27625;50.422;7.944;2022-10-16T04:14:59;3.33;;;2.00;;
2031;SDS011;27625;50.422;7.944;2022-10-16T04:17:27;2.93;;;2.07;;
2031;SDS011;27625;50.422;7.944;2022-10-16T04:19:53;3.77;;;2.10;;
2031;SDS011;27625;50.422;7.944;2022-10-16T04:22:20;2.90;;;2.03;;
2031;SDS011;27625;50.422;7.944;2022-10-16T04:24:46;3.30;;;2.17;;
2031;SDS011;27625;50.422;7.944;2022-10-16T04:27:13;2.30;;;2.00;;
2031;SDS011;27625;50.422;7.944;2022-10-16T04:29:40;3.10;;;2.00;;
2031;SDS011;27625;50.422;7.944;2022-10-16T04:32:07;2.30;;;2.00;;
2031;SDS011;27625;50.422;7.944;2022-10-16T04:34:36;2.60;;;2.03;;
2031;SDS011;27625;50.422;7.944;2022-10-16T04:37:03;2.67;;;1.80;;
2031;SDS011;27625;50.422;7.944;2022-10-16T04:39:29;2.40;;;2.00;;
2031;SDS011;27625;50.422;7.944;2022-10-16T04:41:56;2.87;;;2.10;;
2031;SDS011;27625;50.422;7.944;2022-10-16T04:44:22;3.00;;;1.87;;
2031;SDS011;27625;50.422;7.944;2022-10-16T04:46:49;5.47;;;2.00;;
2031;SDS011;27625;50.422;7.944;2022-10-16T04:49:16;3.77;;;1.97;;
2031;SDS011;27625;50.422;7.944;2022-10-16T04:51:44;2.20;;;1.70;;
2031;SDS011;27625;50.422;7.944;2022-10-16T04:54:11;2.20;;;1.70;;
2031;SDS011;27625;50.422;7.944;2022-10-16T04:56:37;2.50;;;2.00;;
2031;SDS011;27625;50.422;7.944;2022-10-16T04:59:11;4.17;;;1.87;;
2031;SDS011;27625;50.422;7.944;2022-10-16T05:01:38;3.07;;;2.20;;
2031;SDS011;27625;50.422;7.944;2022-10-16T05:04:05;3.90;;;2.30;;
2031;SDS011;27625;50.422;7.944;2022-10-16T05:06:32;5.57;;;2.13;;
2031;SDS011;27625;50.422;7.944;2022-10-16T05:09:00;2.90;;;2.13;;
2031;SDS011;27625;50.422;7.944;2022-10-16T05:11:26;2.37;;;1.73;;
2031;SDS011;27625;50.422;7.944;2022-10-16T05:13:53;2.73;;;1.90;;
2031;SDS011;27625;50.422;7.944;2022-10-16T05:16:19;3.43;;;1.97;;
2031;SDS011;27625;50.422;7.944;2022-10-16T05:18:46;2.17;;;1.67;;
2031;SDS011;27625;50.422;7.944;2022-10-16T05:21:13;4.63;;;2.33;;
2031;SDS011;27625;50.422;7.944;2022-10-16T05:23:40;3.13;;;2.00;;
2031;SDS011;27625;50.422;7.944;2022-10-16T05:26:08;2.50;;;2.00;;
2031;SDS011;27625;50.422;7.944;2022-10-16T05:28:34;2.40;;;1.80;;
2031;SDS011;27625;50.422;7.944;2022-10-16T05:31:03;2.30;;;1.90;;
2031;SDS011;27625;50.422;7.944;2022-10-16T05:33:30;2.20;;;1.70;;
2031;SDS011;27625;50.422;7.944;2022-10-16T05:35:57;2.97;;;1.80;;
2031;SDS011;27625;50.422;7.944;2022-10-16T05:38:27;2.70;;;1.90;;
2031;SDS011;27625;50.422;7.944;2022-10-16T05:40:55;3.87;;;2.07;;
2031;SDS011;27625;50.422;7.944;2022-10-16T05:43:24;2.70;;;1.90;;
2031;SDS011;27625;50.422;7.944;2022-10-16T05:45:54;3.10;;;2.00;;
2031;SDS011;27625;50.422;7.944;2022-10-16T05:48:22;2.60;;;2.10;;
2031;SDS011;27625;50.422;7.944;2022-10-16T05:50:55;2.37;;;1.90;;
2031;SDS011;27625;50.422;7.944;2022-10-16T05:53:23;2.63;;;2.00;;
2031;SDS011;27625;50.422;7.944;2022-10-16T05:55:54;5.43;;;2.10;;
2031;SDS011;27625;50.422;7.944;2022-10-16T05:58:20;2.97;;;2.13;;
2031;SDS011;27625;50.422;7.944;2022-10-16T06:00:55;3.10;;;2.20;;
2031;SDS011;27625;50.422;7.944;2022-10-16T06:03:22;3.80;;;2.60;;
2031;SDS011;27625;50.422;7.944;2022-10-16T06:05:49;4.37;;;2.80;;
2031;SDS011;27625;50.422;7.944;2022-10-16T06:08:16;5.00;;;2.67;;
2031;SDS011;27625;50.422;7.944;2022-10-16T06:10:42;4.97;;;3.27;;
2031;SDS011;27625;50.422;7.944;2022-10-16T06:13:09;6.37;;;3.40;;
2031;SDS011;27625;50.422;7.944;2022-10-16T06:15:36;7.17;;;4.13;;
2031;SDS011;27625;50.422;7.944;2022-10-16T06:18:05;6.70;;;4.27;;
2031;SDS011;27625;50.422;7.944;2022-10-16T06:20:32;6.40;;;3.60;;
2031;SDS011;27625;50.422;7.944;2022-10-16T06:22:58;4.53;;;3.40;;
2031;SDS011;27625;50.422;7.944;2022-10-16T06:25:24;7.47;;;4.40;;
2031;SDS011;27625;50.422;7.944;2022-10-16T06:27:51;5.50;;;4.23;;
2031;SDS011;27625;50.422;7.944;2022-10-16T06:30:20;3.93;;;3.50;;
2031;SDS011;27625;50.422;7.944;2022-10-16T06:32:47;4.90;;;4.27;;
2031;SDS011;27625;50.422;7.944;2022-10-16T06:35:15;5.43;;;4.23;;
2031;SDS011;27625;50.422;7.944;2022-10-16T06:37:42;4.37;;;3.67;;
2031;SDS011;27625;50.422;7.944;2022-10-16T06:40:09;4.73;;;3.73;;
2031;SDS011;27625;50.422;7.944;2022-10-16T06:42:35;5.63;;;3.73;;
2031;SDS011;27625;50.422;7.944;2022-10-16T06:45:02;4.80;;;3.63;;
2031;SDS011;27625;50.422;7.944;2022-10-16T06:47:30;4.77;;;3.50;;
2031;SDS011;27625;50.422;7.944;2022-10-16T06:49:56;4.57;;;3.33;;
2031;SDS011;27625;50.422;7.944;2022-10-16T06:52:24;3.40;;;2.77;;
2031;SDS011;27625;50.422;7.944;2022-10-16T06:54:54;3.50;;;3.00;;
2031;SDS011;27625;50.422;7.944;2022-10-16T06:57:20;3.47;;;2.80;;
2031;SDS011;27625;50.422;7.944;2022-10-16T06:59:47;4.47;;;3.80;;
2031;SDS011;27625;50.422;7.944;2022-10-16T07:02:15;5.83;;;4.30;;
2031;SDS011;27625;50.422;7.944;2022-10-16T07:04:42;4.17;;;3.77;;
2031;SDS011;27625;50.422;7.944;2022-10-16T07:07:09;5.37;;;4.03;;
2031;SDS011;27625;50.422;7.944;2022-10-16T07:09:36;6.80;;;4.53;;
2031;SDS011;27625;50.422;7.944;2022-10-16T07:12:03;6.13;;;4.43;;
2031;SDS011;27625;50.422;7.944;2022-10-16T07:14:30;4.37;;;3.70;;
2031;SDS011;27625;50.422;7.944;2022-10-16T07:16:57;4.07;;;3.33;;
2031;SDS011;27625;50.422;7.944;2022-10-16T07:19:24;3.80;;;3.03;;
2031;SDS011;27625;50.422;7.944;2022-10-16T07:21:50;4.37;;;3.77;;
2031;SDS011;27625;50.422;7.944;2022-10-16T07:24:17;9.73;;;4.83;;
2031;SDS011;27625;50.422;7.944;2022-10-16T07:26:45;4.23;;;3.50;;
2031;SDS011;27625;50.422;7.944;2022-10-16T07:29:12;5.97;;;3.50;;
2031;SDS011;27625;50.422;7.944;2022-10-16T07:31:41;6.40;;;5.77;;
2031;SDS011;27625;50.422;7.944;2022-10-16T07:34:08;5.73;;;5.20;;
2031;SDS011;27625;50.422;7.944;2022-10-16T07:36:35;10.93;;;7.37;;
2031;SDS011;27625;50.422;7.944;2022-10-16T07:39:02;8.67;;;7.87;;
2031;SDS011;27625;50.422;7.944;2022-10-16T07:41:29;6.63;;;5.90;;
2031;SDS011;27625;50.422;7.944;2022-10-16T07:43:59;4.50;;;4.10;;
2031;SDS011;27625;50.422;7.944;2022-10-16T07:46:26;3.67;;;3.30;;
2031;SDS011;27625;50.422;7.944;2022-10-16T07:48:52;6.40;;;4.80;;
2031;SDS011;27625;50.422;7.944;2022-10-16T07:51:20;6.70;;;6.10;;
2031;SDS011;27625;50.422;7.944;2022-10-16T07:53:47;3.97;;;3.47;;
2031;SDS011;27625;50.422;7.944;2022-10-16T07:56:15;7.37;;;4.37;;
2031;SDS011;27625;50.422;7.944;2022-10-16T07:58:42;5.10;;;4.60;;
2031;SDS011;27625;50.422;7.944;2022-10-16T08:01:10;13.50;;;12.40;;
2031;SDS011;27625;50.422;7.944;2022-10-16T08:03:38;25.97;;;23.60;;
2031;SDS011;27625;50.422;7.944;2022-10-16T08:06:07;13.90;;;12.60;;
2031;SDS011;27625;50.422;7.944;2022-10-16T08:08:34;8.30;;;6.27;;
2031;SDS011;27625;50.422;7.944;2022-10-16T08:11:01;8.83;;;7.93;;
2031;SDS011;27625;50.422;7.944;2022-10-16T08:13:28;4.97;;;4.27;;
2031;SDS011;27625;50.422;7.944;2022-10-16T08:15:55;4.27;;;3.60;;
2031;SDS011;27625;50.422;7.944;2022-10-16T08:18:23;4.60;;;3.60;;
2031;SDS011;27625;50.422;7.944;2022-10-16T08:20:54;6.80;;;3.30;;
2031;SDS011;27625;50.422;7.944;2022-10-16T08:23:22;3.13;;;2.57;;
2031;SDS011;27625;50.422;7.944;2022-10-16T08:25:50;4.50;;;2.10;;
2031;SDS011;27625;50.422;7.944;2022-10-16T08:28:17;3.50;;;3.20;;
2031;SDS011;27625;50.422;7.944;2022-10-16T08:30:45;3.50;;;2.27;;
2031;SDS011;27625;50.422;7.944;2022-10-16T08:33:12;4.63;;;3.90;;
2031;SDS011;27625;50.422;7.944;2022-10-16T08:35:40;3.40;;;2.93;;
2031;SDS011;27625;50.422;7.944;2022-10-16T08:38:07;4.33;;;2.40;;
2031;SDS011;27625;50.422;7.944;2022-10-16T08:40:34;4.37;;;2.40;;
2031;SDS011;27625;50.422;7.944;2022-10-16T08:43:09;3.20;;;2.30;;
2031;SDS011;27625;50.422;7.944;2022-10-16T08:45:49;3.50;;;2.37;;
2031;SDS011;27625;50.422;7.944;2022-10-16T08:48:26;5.43;;;3.30;;
2031;SDS011;27625;50.422;7.944;2022-10-16T08:50:57;3.47;;;2.87;;
2031;SDS011;27625;50.422;7.944;2022-10-16T08:53:24;4.83;;;3.00;;
2031;SDS011;27625;50.422;7.944;2022-10-16T08:55:53;3.30;;;2.50;;
2031;SDS011;27625;50.422;7.944;2022-10-16T08:58:20;4.40;;;2.57;;
2031;SDS011;27625;50.422;7.944;2022-10-16T09:00:49;2.97;;;2.33;;
2031;SDS011;27625;50.422;7.944;2022-10-16T09:03:32;4.60;;;2.60;;
2031;SDS011;27625;50.422;7.944;2022-10-16T09:06:08;6.90;;;5.90;;
2031;SDS011;27625;50.422;7.944;2022-10-16T09:08:42;5.13;;;3.90;;
2031;SDS011;27625;50.422;7.944;2022-10-16T09:11:18;5.63;;;4.30;;
2031;SDS011;27625;50.422;7.944;2022-10-16T09:13:52;17.93;;;5.90;;
2031;SDS011;27625;50.422;7.944;2022-10-16T09:16:27;4.60;;;2.83;;
2031;SDS011;27625;50.422;7.944;2022-10-16T09:18:58;4.13;;;2.50;;
2031;SDS011;27625;50.422;7.944;2022-10-16T09:21:35;3.60;;;2.57;;
2031;SDS011;27625;50.422;7.944;2022-10-16T09:24:07;4.67;;;3.10;;
2031;SDS011;27625;50.422;7.944;2022-10-16T09:26:37;5.70;;;2.50;;
2031;SDS011;27625;50.422;7.944;2022-10-16T09:29:04;3.40;;;1.97;;
2031;SDS011;27625;50.422;7.944;2022-10-16T09:31:31;2.50;;;2.00;;
2031;SDS011;27625;50.422;7.944;2022-10-16T09:33:59;5.10;;;1.97;;
2031;SDS011;27625;50.422;7.944;2022-10-16T09:36:29;3.90;;;2.10;;
2031;SDS011;27625;50.422;7.944;2022-10-16T09:39:06;4.50;;;2.00;;
2031;SDS011;27625;50.422;7.944;2022-10-16T09:41:35;4.53;;;3.03;;
2031;SDS011;27625;50.422;7.944;2022-10-16T09:44:03;4.40;;;2.47;;
2031;SDS011;27625;50.422;7.944;2022-10-16T09:46:31;4.43;;;2.10;;
2031;SDS011;27625;50.422;7.944;2022-10-16T09:49:00;2.80;;;1.73;;
2031;SDS011;27625;50.422;7.944;2022-10-16T09:51:29;3.83;;;1.83;;
2031;SDS011;27625;50.422;7.944;2022-10-16T09:53:58;2.90;;;1.90;;
2031;SDS011;27625;50.422;7.944;2022-10-16T09:56:27;2.70;;;1.80;;
2031;SDS011;27625;50.422;7.944;2022-10-16T09:58:55;2.90;;;2.37;;
2031;SDS011;27625;50.422;7.944;2022-10-16T10:01:24;3.30;;;1.80;;
2031;SDS011;27625;50.422;7.944;2022-10-16T10:03:55;4.40;;;2.50;;
2031;SDS011;27625;50.422;7.944;2022-10-16T10:06:26;4.00;;;2.33;;
2031;SDS011;27625;50.422;7.944;2022-10-16T10:08:55;4.60;;;2.70;;
2031;SDS011;27625;50.422;7.944;2022-10-16T10:11:41;3.10;;;2.30;;
2031;SDS011;27625;50.422;7.944;2022-10-16T10:14:13;3.07;;;2.20;;
2031;SDS011;27625;50.422;7.944;2022-10-16T10:16:43;3.40;;;1.80;;
2031;SDS011;27625;50.422;7.944;2022-10-16T10:19:12;3.33;;;2.23;;
2031;SDS011;27625;50.422;7.944;2022-10-16T10:21:40;4.73;;;1.97;;
2031;SDS011;27625;50.422;7.944;2022-10-16T10:24:09;3.90;;;1.50;;
2031;SDS011;27625;50.422;7.944;2022-10-16T10:26:36;4.10;;;2.10;;
2031;SDS011;27625;50.422;7.944;2022-10-16T10:29:05;3.70;;;1.70;;
2031;SDS011;27625;50.422;7.944;2022-10-16T10:31:38;2.07;;;1.33;;
2031;SDS011;27625;50.422;7.944;2022-10-16T10:34:17;2.60;;;1.40;;
2031;SDS011;27625;50.422;7.944;2022-10-16T10:36:59;3.03;;;1.60;;
2031;SDS011;27625;50.422;7.944;2022-10-16T10:39:30;3.07;;;1.20;;
2031;SDS011;27625;50.422;7.944;2022-10-16T10:42:03;2.23;;;1.33;;
2031;SDS011;27625;50.422;7.944;2022-10-16T10:44:55;2.10;;;1.17;;
2031;SDS011;27625;50.422;7.944;2022-10-16T10:47:30;4.53;;;1.30;;
2031;SDS011;27625;50.422;7.944;2022-10-16T10:50:04;3.70;;;1.47;;
2031;SDS011;27625;50.422;7.944;2022-10-16T10:52:41;3.13;;;1.30;;
2031;SDS011;27625;50.422;7.944;2022-10-16T10:55:14;2.87;;;2.57;;
2031;SDS011;27625;50.422;7.944;2022-10-16T10:57:49;3.50;;;1.83;;
2031;SDS011;27625;50.422;7.944;2022-10-16T11:00:25;3.57;;;1.30;;
2031;SDS011;27625;50.422;7.944;2022-10-16T11:02:55;2.33;;;1.20;;
2031;SDS011;27625;50.422;7.944;2022-10-16T11:05:27;3.60;;;1.23;;
2031;SDS011;27625;50.422;7.944;2022-10-16T11:08:00;2.10;;;1.10;;
2031;SDS011;27625;50.422;7.944;2022-10-16T11:10:30;2.77;;;1.30;;
2031;SDS011;27625;50.422;7.944;2022-10-16T11:13:04;2.53;;;1.60;;
2031;SDS011;27625;50.422;7.944;2022-10-16T11:15:39;2.50;;;1.70;;
2031;SDS011;27625;50.422;7.944;2022-10-16T11:18:08;3.40;;;1.77;;
2031;SDS011;27625;50.422;7.944;2022-10-16T11:20:40;2.97;;;1.37;;
2031;SDS011;27625;50.422;7.944;2022-10-16T11:23:11;3.90;;;1.57;;
2031;SDS011;27625;50.422;7.944;2022-10-16T11:25:41;2.80;;;1.37;;
2031;SDS011;27625;50.422;7.944;2022-10-16T11:28:10;7.60;;;1.60;;
2031;SDS011;27625;50.422;7.944;2022-10-16T11:30:41;2.50;;;1.70;;
2031;SDS011;27625;50.422;7.944;2022-10-16T11:33:17;3.33;;;1.60;;
2031;SDS011;27625;50.422;7.944;2022-10-16T11:35:51;2.70;;;1.40;;
2031;SDS011;27625;50.422;7.944;2022-10-16T11:38:20;2.53;;;1.43;;
2031;SDS011;27625;50.422;7.944;2022-10-16T11:40:53;2.70;;;1.60;;
2031;SDS011;27625;50.422;7.944;2022-10-16T11:43:24;4.43;;;1.90;;
2031;SDS011;27625;50.422;7.944;2022-10-16T11:45:57;7.37;;;1.90;;
2031;SDS011;27625;50.422;7.944;2022-10-16T11:48:27;3.90;;;2.53;;
2031;SDS011;27625;50.422;7.944;2022-10-16T11:51:00;2.70;;;2.00;;
2031;SDS011;27625;50.422;7.944;2022-10-16T11:53:35;2.57;;;1.90;;
2031;SDS011;27625;50.422;7.944;2022-10-16T11:56:06;4.53;;;2.03;;
2031;SDS011;27625;50.422;7.944;2022-10-16T11:58:33;2.30;;;1.80;;
2031;SDS011;27625;50.422;7.944;2022-10-16T12:01:10;4.53;;;1.80;;
2031;SDS011;27625;50.422;7.944;2022-10-16T12:03:45;6.20;;;2.00;;
2031;SDS011;27625;50.422;7.944;2022-10-16T12:06:18;2.77;;;1.63;;
2031;SDS011;27625;50.422;7.944;2022-10-16T12:08:52;3.03;;;1.87;;
2031;SDS011;27625;50.422;7.944;2022-10-16T12:11:22;2.67;;;1.90;;
2031;SDS011;27625;50.422;7.944;2022-10-16T12:13:51;5.63;;;2.10;;
2031;SDS011;27625;50.422;7.944;2022-10-16T12:16:23;2.70;;;1.90;;
2031;SDS011;27625;50.422;7.944;2022-10-16T12:18:49;4.10;;;1.63;;
2031;SDS011;27625;50.422;7.944;2022-10-16T12:21:30;4.30;;;2.07;;
2031;SDS011;27625;50.422;7.944;2022-10-16T12:23:58;3.60;;;1.83;;
2031;SDS011;27625;50.422;7.944;2022-10-16T12:26:25;3.63;;;1.47;;
2031;SDS011;27625;50.422;7.944;2022-10-16T12:28:53;2.60;;;2.00;;
2031;SDS011;27625;50.422;7.944;2022-10-16T12:31:20;2.53;;;1.60;;
2031;SDS011;27625;50.422;7.944;2022-10-16T12:33:55;3.33;;;1.93;;
2031;SDS011;27625;50.422;7.944;2022-10-16T12:36:27;3.33;;;1.50;;
2031;SDS011;27625;50.422;7.944;2022-10-16T12:38:56;4.77;;;1.60;;
2031;SDS011;27625;50.422;7.944;2022-10-16T12:41:26;2.40;;;1.33;;
2031;SDS011;27625;50.422;7.944;2022-10-16T12:43:53;2.80;;;1.60;;
2031;SDS011;27625;50.422;7.944;2022-10-16T12:46:23;2.33;;;1.50;;
2031;SDS011;27625;50.422;7.944;2022-10-16T12:48:52;2.10;;;1.10;;
2031;SDS011;27625;50.422;7.944;2022-10-16T12:51:23;2.67;;;1.60;;
2031;SDS011;27625;50.422;7.944;2022-10-16T12:54:00;2.10;;;1.10;;
2031;SDS011;27625;50.422;7.944;2022-10-16T12:56:31;7.80;;;1.37;;
2031;SDS011;27625;50.422;7.944;2022-10-16T12:59:08;2.63;;;1.30;;
2031;SDS011;27625;50.422;7.944;2022-10-16T13:01:46;5.03;;;1.23;;
2031;SDS011;27625;50.422;7.944;2022-10-16T13:04:27;4.90;;;1.50;;
2031;SDS011;27625;50.422;7.944;2022-10-16T13:07:00;3.57;;;1.30;;
2031;SDS011;27625;50.422;7.944;2022-10-16T13:09:34;2.47;;;1.13;;
2031;SDS011;27625;50.422;7.944;2022-10-16T13:12:10;2.40;;;1.27;;
2031;SDS011;27625;50.422;7.944;2022-10-16T13:14:54;3.00;;;1.30;;
2031;SDS011;27625;50.422;7.944;2022-10-16T13:17:44;4.37;;;1.23;;
2031;SDS011;27625;50.422;7.944;2022-10-16T13:20:17;3.37;;;1.37;;
2031;SDS011;27625;50.422;7.944;2022-10-16T13:22:51;4.00;;;1.37;;
2031;SDS011;27625;50.422;7.944;2022-10-16T13:25:27;2.37;;;1.07;;
2031;SDS011;27625;50.422;7.944;2022-10-16T13:27:59;2.50;;;1.20;;
2031;SDS011;27625;50.422;7.944;2022-10-16T13:30:28;2.10;;;1.10;;
2031;SDS011;27625;50.422;7.944;2022-10-16T13:33:01;2.03;;;1.03;;
2031;SDS011;27625;50.422;7.944;2022-10-16T13:35:29;4.87;;;1.20;;
2031;SDS011;27625;50.422;7.944;2022-10-16T13:38:08;2.07;;;0.97;;
2031;SDS011;27625;50.422;7.944;2022-10-16T13:40:47;3.30;;;1.10;;
2031;SDS011;27625;50.422;7.944;2022-10-16T13:43:14;2.40;;;1.50;;
2031;SDS011;27625;50.422;7.944;2022-10-16T13:45:52;2.53;;;1.10;;
2031;SDS011;27625;50.422;7.944;2022-10-16T13:48:21;3.83;;;1.00;;
2031;SDS011;27625;50.422;7.944;2022-10-16T13:50:57;2.00;;;1.30;;
2031;SDS011;27625;50.422;7.944;2022-10-16T13:53:25;2.30;;;1.30;;
2031;SDS011;27625;50.422;7.944;2022-10-16T13:55:51;2.67;;;1.40;;
2031;SDS011;27625;50.422;7.944;2022-10-16T13:58:18;2.20;;;1.40;;
2031;SDS011;27625;50.422;7.944;2022-10-16T14:00:52;2.10;;;1.13;;
2031;SDS011;27625;50.422;7.944;2022-10-16T14:03:23;2.10;;;1.20;;
2031;SDS011;27625;50.422;7.944;2022-10-16T14:05:51;2.10;;;1.17;;
2031;SDS011;27625;50.422;7.944;2022-10-16T14:08:21;2.00;;;1.00;;
2031;SDS011;27625;50.422;7.944;2022-10-16T14:10:49;1.90;;;1.00;;
2031;SDS011;27625;50.422;7.944;2022-10-16T14:13:17;2.53;;;1.10;;
2031;SDS011;27625;50.422;7.944;2022-10-16T14:15:46;1.97;;;1.10;;
2031;SDS011;27625;50.422;7.944;2022-10-16T14:18:16;3.00;;;1.27;;
2031;SDS011;27625;50.422;7.944;2022-10-16T14:20:48;3.00;;;1.50;;
2031;SDS011;27625;50.422;7.944;2022-10-16T14:23:20;4.67;;;1.20;;
2031;SDS011;27625;50.422;7.944;2022-10-16T14:25:48;4.57;;;1.30;;
2031;SDS011;27625;50.422;7.944;2022-10-16T14:28:16;2.87;;;1.27;;
2031;SDS011;27625;50.422;7.944;2022-10-16T14:30:50;2.90;;;1.23;;
2031;SDS011;27625;50.422;7.944;2022-10-16T14:33:20;2.07;;;1.20;;
2031;SDS011;27625;50.422;7.944;2022-10-16T14:36:00;2.00;;;1.17;;
2031;SDS011;27625;50.422;7.944;2022-10-16T14:38:28;2.17;;;1.23;;
2031;SDS011;27625;50.422;7.944;2022-10-16T14:40:56;2.57;;;1.40;;
2031;SDS011;27625;50.422;7.944;2022-10-16T14:43:26;2.80;;;1.40;;
2031;SDS011;27625;50.422;7.944;2022-10-16T14:45:56;2.30;;;1.40;;
2031;SDS011;27625;50.422;7.944;2022-10-16T14:48:23;2.73;;;1.53;;
2031;SDS011;27625;50.422;7.944;2022-10-16T14:50:51;3.87;;;1.40;;
2031;SDS011;27625;50.422;7.944;2022-10-16T14:53:19;3.73;;;1.60;;
2031;SDS011;27625;50.422;7.944;2022-10-16T14:55:46;2.30;;;1.27;;
2031;SDS011;27625;50.422;7.944;2022-10-16T14:58:13;3.07;;;1.57;;
2031;SDS011;27625;50.422;7.944;2022-10-16T15:00:43;2.87;;;1.47;;
2031;SDS011;27625;50.422;7.944;2022-10-16T15:03:10;3.00;;;1.40;;
2031;SDS011;27625;50.422;7.944;2022-10-16T15:05:36;2.30;;;1.43;;
2031;SDS011;27625;50.422;7.944;2022-10-16T15:08:03;2.50;;;1.40;;
2031;SDS011;27625;50.422;7.944;2022-10-16T15:10:35;3.93;;;1.70;;
2031;SDS011;27625;50.422;7.944;2022-10-16T15:13:06;3.07;;;1.40;;
2031;SDS011;27625;50.422;7.944;2022-10-16T15:15:33;2.37;;;1.30;;
2031;SDS011;27625;50.422;7.944;2022-10-16T15:18:01;2.30;;;1.37;;